sensor_id;sensor_type;location;lat;lon;timestamp;P1;durP1;ratioP1;P2;durP2;ratioP2
27428;SDS011;14881;48.092;11.574;2023-08-07T00:02:12;2.75;;;1.30;;
27428;SDS011;14881;48.092;11.574;2023-08-07T00:04:38;2.85;;;1.40;;
27428;SDS011;14881;48.092;11.574;2023-08-07T00:07:08;1.85;;;1.20;;
27428;SDS011;14881;48.092;11.574;2023-08-07T00:09:44;1.40;;;1.30;;
27428;SDS011;14881;48.092;11.574;2023-08-07T00:12:10;3.05;;;1.20;;
27428;SDS011;14881;48.092;11.574;2023-08-07T00:14:39;1.42;;;1.20;;
27428;SDS011;14881;48.092;11.574;2023-08-07T00:17:08;1.70;;;1.60;;
27428;SDS011;14881;48.092;11.574;2023-08-07T00:19:35;2.80;;;1.35;;
27428;SDS011;14881;48.092;11.574;2023-08-07T00:22:01;1.52;;;1.42;;
27428;SDS011;14881;48.092;11.574;2023-08-07T00:24:35;1.85;;;1.20;;
27428;SDS011;14881;48.092;11.574;2023-08-07T00:27:11;2.88;;;1.52;;
27428;SDS011;14881;48.092;11.574;2023-08-07T00:29:40;1.58;;;1.33;;
27428;SDS011;14881;48.092;11.574;2023-08-07T00:32:10;2.08;;;1.40;;
27428;SDS011;14881;48.092;11.574;2023-08-07T00:34:36;1.90;;;1.30;;
27428;SDS011;14881;48.092;11.574;2023-08-07T00:37:16;1.58;;;1.42;;
27428;SDS011;14881;48.092;11.574;2023-08-07T00:39:43;3.00;;;1.55;;
27428;SDS011;14881;48.092;11.574;2023-08-07T00:42:19;3.38;;;1.75;;
27428;SDS011;14881;48.092;11.574;2023-08-07T00:44:51;3.90;;;1.50;;
27428;SDS011;14881;48.092;11.574;2023-08-07T00:47:18;1.48;;;1.27;;
27428;SDS011;14881;48.092;11.574;2023-08-07T00:49:44;2.35;;;1.30;;
27428;SDS011;14881;48.092;11.574;2023-08-07T00:54:52;4.07;;;1.45;;
27428;SDS011;14881;48.092;11.574;2023-08-07T00:57:22;2.25;;;1.90;;
27428;SDS011;14881;48.092;11.574;2023-08-07T00:59:52;2.47;;;1.83;;
27428;SDS011;14881;48.092;11.574;2023-08-07T01:02:22;5.10;;;1.75;;
27428;SDS011;14881;48.092;11.574;2023-08-07T01:04:55;4.03;;;1.92;;
27428;SDS011;14881;48.092;11.574;2023-08-07T01:07:27;2.33;;;1.80;;
27428;SDS011;14881;48.092;11.574;2023-08-07T01:09:57;2.97;;;1.92;;
27428;SDS011;14881;48.092;11.574;2023-08-07T01:13:07;3.38;;;1.92;;
27428;SDS011;14881;48.092;11.574;2023-08-07T01:15:52;2.55;;;1.73;;
27428;SDS011;14881;48.092;11.574;2023-08-07T01:21:23;2.53;;;1.88;;
27428;SDS011;14881;48.092;11.574;2023-08-07T01:23:50;2.45;;;1.83;;
27428;SDS011;14881;48.092;11.574;2023-08-07T01:29:09;1.88;;;1.63;;
27428;SDS011;14881;48.092;11.574;2023-08-07T01:32:07;2.45;;;1.80;;
27428;SDS011;14881;48.092;11.574;2023-08-07T01:34:35;2.63;;;1.80;;
27428;SDS011;14881;48.092;11.574;2023-08-07T01:37:12;4.20;;;1.80;;
27428;SDS011;14881;48.092;11.574;2023-08-07T01:39:49;2.70;;;1.85;;
27428;SDS011;14881;48.092;11.574;2023-08-07T01:42:17;1.77;;;1.67;;
27428;SDS011;14881;48.092;11.574;2023-08-07T01:44:44;3.70;;;2.25;;
27428;SDS011;14881;48.092;11.574;2023-08-07T01:47:22;2.88;;;1.80;;
27428;SDS011;14881;48.092;11.574;2023-08-07T01:50:01;3.65;;;1.73;;
27428;SDS011;14881;48.092;11.574;2023-08-07T01:52:34;3.28;;;2.03;;
27428;SDS011;14881;48.092;11.574;2023-08-07T01:55:04;3.30;;;2.22;;
27428;SDS011;14881;48.092;11.574;2023-08-07T01:57:31;3.05;;;2.03;;
27428;SDS011;14881;48.092;11.574;2023-08-07T02:01:01;2.80;;;1.80;;
27428;SDS011;14881;48.092;11.574;2023-08-07T02:03:27;2.00;;;1.77;;
27428;SDS011;14881;48.092;11.574;2023-08-07T02:09:09;4.32;;;2.22;;
27428;SDS011;14881;48.092;11.574;2023-08-07T02:11:39;3.22;;;2.03;;
27428;SDS011;14881;48.092;11.574;2023-08-07T02:14:14;4.50;;;2.38;;
27428;SDS011;14881;48.092;11.574;2023-08-07T02:19:13;2.63;;;2.10;;
27428;SDS011;14881;48.092;11.574;2023-08-07T02:22:03;4.53;;;2.22;;
27428;SDS011;14881;48.092;11.574;2023-08-07T02:24:44;3.20;;;2.25;;
27428;SDS011;14881;48.092;11.574;2023-08-07T02:27:20;5.43;;;2.15;;
27428;SDS011;14881;48.092;11.574;2023-08-07T02:29:46;3.78;;;2.30;;
27428;SDS011;14881;48.092;11.574;2023-08-07T02:32:15;5.20;;;2.33;;
27428;SDS011;14881;48.092;11.574;2023-08-07T02:34:45;2.92;;;2.22;;
27428;SDS011;14881;48.092;11.574;2023-08-07T02:37:12;3.90;;;2.22;;
27428;SDS011;14881;48.092;11.574;2023-08-07T02:39:41;2.92;;;2.20;;
27428;SDS011;14881;48.092;11.574;2023-08-07T02:42:14;3.65;;;2.20;;
27428;SDS011;14881;48.092;11.574;2023-08-07T02:44:47;2.70;;;2.00;;
27428;SDS011;14881;48.092;11.574;2023-08-07T02:50:49;2.83;;;1.88;;
27428;SDS011;14881;48.092;11.574;2023-08-07T02:53:17;6.10;;;2.25;;
27428;SDS011;14881;48.092;11.574;2023-08-07T02:55:43;3.13;;;2.28;;
27428;SDS011;14881;48.092;11.574;2023-08-07T02:58:09;4.15;;;2.22;;
27428;SDS011;14881;48.092;11.574;2023-08-07T03:00:47;5.00;;;2.45;;
27428;SDS011;14881;48.092;11.574;2023-08-07T03:03:20;3.08;;;2.30;;
27428;SDS011;14881;48.092;11.574;2023-08-07T03:05:53;5.43;;;2.50;;
27428;SDS011;14881;48.092;11.574;2023-08-07T03:08:28;6.55;;;2.13;;
27428;SDS011;14881;48.092;11.574;2023-08-07T03:10:55;2.42;;;2.03;;
27428;SDS011;14881;48.092;11.574;2023-08-07T03:13:26;2.85;;;2.30;;
27428;SDS011;14881;48.092;11.574;2023-08-07T03:15:59;6.68;;;2.53;;
27428;SDS011;14881;48.092;11.574;2023-08-07T03:18:32;3.13;;;2.30;;
27428;SDS011;14881;48.092;11.574;2023-08-07T03:21:08;4.30;;;2.17;;
27428;SDS011;14881;48.092;11.574;2023-08-07T03:23:50;4.57;;;2.53;;
27428;SDS011;14881;48.092;11.574;2023-08-07T03:26:23;4.47;;;2.20;;
27428;SDS011;14881;48.092;11.574;2023-08-07T03:28:52;4.43;;;2.30;;
27428;SDS011;14881;48.092;11.574;2023-08-07T03:31:28;3.13;;;2.47;;
27428;SDS011;14881;48.092;11.574;2023-08-07T03:33:57;3.53;;;2.30;;
27428;SDS011;14881;48.092;11.574;2023-08-07T03:36:24;3.03;;;2.10;;
27428;SDS011;14881;48.092;11.574;2023-08-07T03:38:53;5.68;;;2.20;;
27428;SDS011;14881;48.092;11.574;2023-08-07T03:41:20;4.15;;;2.45;;
27428;SDS011;14881;48.092;11.574;2023-08-07T03:43:46;5.10;;;2.58;;
27428;SDS011;14881;48.092;11.574;2023-08-07T03:46:13;4.13;;;2.00;;
27428;SDS011;14881;48.092;11.574;2023-08-07T03:51:57;3.13;;;1.98;;
27428;SDS011;14881;48.092;11.574;2023-08-07T03:54:55;2.45;;;2.17;;
27428;SDS011;14881;48.092;11.574;2023-08-07T03:57:21;3.97;;;2.28;;
27428;SDS011;14881;48.092;11.574;2023-08-07T03:59:56;3.42;;;2.40;;
27428;SDS011;14881;48.092;11.574;2023-08-07T04:02:29;4.30;;;2.55;;
27428;SDS011;14881;48.092;11.574;2023-08-07T04:05:03;3.17;;;2.08;;
27428;SDS011;14881;48.092;11.574;2023-08-07T04:07:35;4.32;;;2.10;;
27428;SDS011;14881;48.092;11.574;2023-08-07T04:10:17;5.78;;;2.55;;
27428;SDS011;14881;48.092;11.574;2023-08-07T04:12:55;2.95;;;2.13;;
27428;SDS011;14881;48.092;11.574;2023-08-07T04:15:22;3.22;;;2.20;;
27428;SDS011;14881;48.092;11.574;2023-08-07T04:17:48;3.60;;;1.92;;
27428;SDS011;14881;48.092;11.574;2023-08-07T04:23:24;4.28;;;2.13;;
27428;SDS011;14881;48.092;11.574;2023-08-07T04:25:56;4.10;;;2.00;;
27428;SDS011;14881;48.092;11.574;2023-08-07T04:28:23;2.22;;;1.88;;
27428;SDS011;14881;48.092;11.574;2023-08-07T04:30:55;4.00;;;2.47;;
27428;SDS011;14881;48.092;11.574;2023-08-07T04:33:22;3.92;;;2.10;;
27428;SDS011;14881;48.092;11.574;2023-08-07T04:35:55;4.35;;;2.35;;
27428;SDS011;14881;48.092;11.574;2023-08-07T04:38:21;2.90;;;2.10;;
27428;SDS011;14881;48.092;11.574;2023-08-07T04:40:48;3.55;;;2.05;;
27428;SDS011;14881;48.092;11.574;2023-08-07T04:43:19;3.13;;;2.30;;
27428;SDS011;14881;48.092;11.574;2023-08-07T04:45:52;1.85;;;1.60;;
27428;SDS011;14881;48.092;11.574;2023-08-07T04:48:19;5.30;;;1.95;;
27428;SDS011;14881;48.092;11.574;2023-08-07T04:51:17;2.80;;;2.38;;
27428;SDS011;14881;48.092;11.574;2023-08-07T04:53:44;4.82;;;2.50;;
27428;SDS011;14881;48.092;11.574;2023-08-07T04:56:13;3.03;;;2.10;;
27428;SDS011;14881;48.092;11.574;2023-08-07T04:58:45;4.47;;;2.28;;
27428;SDS011;14881;48.092;11.574;2023-08-07T05:01:12;4.88;;;1.92;;
27428;SDS011;14881;48.092;11.574;2023-08-07T05:03:38;3.58;;;2.33;;
27428;SDS011;14881;48.092;11.574;2023-08-07T05:06:14;7.60;;;2.55;;
27428;SDS011;14881;48.092;11.574;2023-08-07T05:15:13;7.25;;;2.28;;
27428;SDS011;14881;48.092;11.574;2023-08-07T05:18:05;3.63;;;2.13;;
27428;SDS011;14881;48.092;11.574;2023-08-07T05:23:28;6.13;;;2.20;;
27428;SDS011;14881;48.092;11.574;2023-08-07T05:25:58;2.67;;;1.92;;
27428;SDS011;14881;48.092;11.574;2023-08-07T05:28:31;3.50;;;2.22;;
27428;SDS011;14881;48.092;11.574;2023-08-07T05:32:14;4.15;;;2.30;;
27428;SDS011;14881;48.092;11.574;2023-08-07T05:37:22;5.07;;;2.60;;
27428;SDS011;14881;48.092;11.574;2023-08-07T05:39:49;2.75;;;2.00;;
27428;SDS011;14881;48.092;11.574;2023-08-07T05:42:15;4.32;;;2.08;;
27428;SDS011;14881;48.092;11.574;2023-08-07T05:44:42;4.30;;;2.10;;
27428;SDS011;14881;48.092;11.574;2023-08-07T05:47:09;4.53;;;2.25;;
27428;SDS011;14881;48.092;11.574;2023-08-07T05:49:35;5.40;;;2.20;;
27428;SDS011;14881;48.092;11.574;2023-08-07T05:52:01;5.55;;;2.17;;
27428;SDS011;14881;48.092;11.574;2023-08-07T05:54:28;3.75;;;2.17;;
27428;SDS011;14881;48.092;11.574;2023-08-07T05:56:54;5.82;;;2.22;;
27428;SDS011;14881;48.092;11.574;2023-08-07T05:59:21;3.97;;;2.22;;
27428;SDS011;14881;48.092;11.574;2023-08-07T06:01:48;4.68;;;2.15;;
27428;SDS011;14881;48.092;11.574;2023-08-07T06:04:14;3.00;;;2.00;;
27428;SDS011;14881;48.092;11.574;2023-08-07T06:06:40;4.65;;;2.40;;
27428;SDS011;14881;48.092;11.574;2023-08-07T06:09:08;5.55;;;2.42;;
27428;SDS011;14881;48.092;11.574;2023-08-07T06:11:34;4.00;;;1.90;;
27428;SDS011;14881;48.092;11.574;2023-08-07T06:14:01;4.65;;;2.55;;
27428;SDS011;14881;48.092;11.574;2023-08-07T06:16:27;4.75;;;2.10;;
27428;SDS011;14881;48.092;11.574;2023-08-07T06:18:54;4.47;;;2.17;;
27428;SDS011;14881;48.092;11.574;2023-08-07T06:21:21;5.13;;;2.30;;
27428;SDS011;14881;48.092;11.574;2023-08-07T06:23:47;3.00;;;2.10;;
27428;SDS011;14881;48.092;11.574;2023-08-07T06:26:14;3.78;;;2.00;;
27428;SDS011;14881;48.092;11.574;2023-08-07T06:28:40;5.18;;;2.00;;
27428;SDS011;14881;48.092;11.574;2023-08-07T06:31:07;4.72;;;2.25;;
27428;SDS011;14881;48.092;11.574;2023-08-07T06:33:35;3.70;;;2.00;;
27428;SDS011;14881;48.092;11.574;2023-08-07T06:36:03;4.50;;;1.92;;
27428;SDS011;14881;48.092;11.574;2023-08-07T06:38:31;2.92;;;2.10;;
27428;SDS011;14881;48.092;11.574;2023-08-07T06:40:57;3.17;;;2.08;;
27428;SDS011;14881;48.092;11.574;2023-08-07T06:43:24;2.60;;;1.80;;
27428;SDS011;14881;48.092;11.574;2023-08-07T06:45:50;5.93;;;2.03;;
27428;SDS011;14881;48.092;11.574;2023-08-07T06:48:17;3.25;;;1.92;;
27428;SDS011;14881;48.092;11.574;2023-08-07T06:50:43;4.63;;;2.33;;
27428;SDS011;14881;48.092;11.574;2023-08-07T06:53:10;4.30;;;1.83;;
27428;SDS011;14881;48.092;11.574;2023-08-07T06:55:37;2.60;;;2.00;;
27428;SDS011;14881;48.092;11.574;2023-08-07T06:58:03;3.58;;;1.85;;
27428;SDS011;14881;48.092;11.574;2023-08-07T07:00:29;8.20;;;2.40;;
27428;SDS011;14881;48.092;11.574;2023-08-07T07:02:57;2.95;;;1.83;;
27428;SDS011;14881;48.092;11.574;2023-08-07T07:05:26;6.40;;;1.90;;
27428;SDS011;14881;48.092;11.574;2023-08-07T07:07:52;3.92;;;1.60;;
27428;SDS011;14881;48.092;11.574;2023-08-07T07:10:20;4.65;;;2.22;;
27428;SDS011;14881;48.092;11.574;2023-08-07T07:12:46;2.35;;;1.80;;
27428;SDS011;14881;48.092;11.574;2023-08-07T07:15:13;4.32;;;2.42;;
27428;SDS011;14881;48.092;11.574;2023-08-07T07:17:40;3.75;;;1.95;;
27428;SDS011;14881;48.092;11.574;2023-08-07T07:20:07;4.68;;;1.92;;
27428;SDS011;14881;48.092;11.574;2023-08-07T07:22:34;3.92;;;1.95;;
27428;SDS011;14881;48.092;11.574;2023-08-07T07:25:01;3.50;;;2.22;;
27428;SDS011;14881;48.092;11.574;2023-08-07T07:27:28;4.22;;;2.30;;
27428;SDS011;14881;48.092;11.574;2023-08-07T07:29:54;4.22;;;2.45;;
27428;SDS011;14881;48.092;11.574;2023-08-07T07:32:21;2.83;;;2.03;;
27428;SDS011;14881;48.092;11.574;2023-08-07T07:34:47;5.72;;;1.98;;
27428;SDS011;14881;48.092;11.574;2023-08-07T07:37:14;3.50;;;1.90;;
27428;SDS011;14881;48.092;11.574;2023-08-07T07:39:42;7.18;;;1.83;;
27428;SDS011;14881;48.092;11.574;2023-08-07T07:42:08;1.92;;;1.50;;
27428;SDS011;14881;48.092;11.574;2023-08-07T07:44:36;2.97;;;1.90;;
27428;SDS011;14881;48.092;11.574;2023-08-07T07:47:05;5.13;;;2.10;;
27428;SDS011;14881;48.092;11.574;2023-08-07T07:49:32;4.25;;;1.95;;
27428;SDS011;14881;48.092;11.574;2023-08-07T07:51:58;4.03;;;1.98;;
27428;SDS011;14881;48.092;11.574;2023-08-07T07:54:25;3.42;;;1.85;;
27428;SDS011;14881;48.092;11.574;2023-08-07T07:56:51;4.93;;;2.13;;
27428;SDS011;14881;48.092;11.574;2023-08-07T07:59:18;3.47;;;1.92;;
27428;SDS011;14881;48.092;11.574;2023-08-07T08:01:45;4.95;;;1.88;;
27428;SDS011;14881;48.092;11.574;2023-08-07T08:04:11;3.20;;;1.90;;
27428;SDS011;14881;48.092;11.574;2023-08-07T08:06:39;4.82;;;2.05;;
27428;SDS011;14881;48.092;11.574;2023-08-07T08:09:06;2.97;;;2.17;;
27428;SDS011;14881;48.092;11.574;2023-08-07T08:11:35;2.63;;;1.88;;
27428;SDS011;14881;48.092;11.574;2023-08-07T08:14:04;4.20;;;2.35;;
27428;SDS011;14881;48.092;11.574;2023-08-07T08:16:30;2.33;;;1.83;;
27428;SDS011;14881;48.092;11.574;2023-08-07T08:18:57;3.63;;;1.90;;
27428;SDS011;14881;48.092;11.574;2023-08-07T08:21:24;3.55;;;1.80;;
27428;SDS011;14881;48.092;11.574;2023-08-07T08:23:50;6.05;;;2.17;;
27428;SDS011;14881;48.092;11.574;2023-08-07T08:26:16;4.85;;;2.30;;
27428;SDS011;14881;48.092;11.574;2023-08-07T08:28:43;2.63;;;1.88;;
27428;SDS011;14881;48.092;11.574;2023-08-07T08:31:09;3.15;;;1.83;;
27428;SDS011;14881;48.092;11.574;2023-08-07T08:33:36;2.00;;;1.80;;
27428;SDS011;14881;48.092;11.574;2023-08-07T08:36:03;2.58;;;2.00;;
27428;SDS011;14881;48.092;11.574;2023-08-07T08:38:30;3.15;;;1.90;;
27428;SDS011;14881;48.092;11.574;2023-08-07T08:41:00;4.57;;;2.10;;
27428;SDS011;14881;48.092;11.574;2023-08-07T08:43:29;3.58;;;1.80;;
27428;SDS011;14881;48.092;11.574;2023-08-07T08:46:00;2.08;;;1.75;;
27428;SDS011;14881;48.092;11.574;2023-08-07T08:48:27;5.15;;;2.05;;
27428;SDS011;14881;48.092;11.574;2023-08-07T08:50:57;2.92;;;2.05;;
27428;SDS011;14881;48.092;11.574;2023-08-07T08:53:24;2.17;;;1.95;;
27428;SDS011;14881;48.092;11.574;2023-08-07T08:55:52;4.60;;;1.80;;
27428;SDS011;14881;48.092;11.574;2023-08-07T08:58:21;3.00;;;1.95;;
27428;SDS011;14881;48.092;11.574;2023-08-07T09:00:49;5.03;;;2.15;;
27428;SDS011;14881;48.092;11.574;2023-08-07T09:03:16;2.05;;;1.80;;
27428;SDS011;14881;48.092;11.574;2023-08-07T09:05:44;2.45;;;1.83;;
27428;SDS011;14881;48.092;11.574;2023-08-07T09:08:12;3.63;;;2.08;;
27428;SDS011;14881;48.092;11.574;2023-08-07T09:10:41;2.97;;;2.30;;
27428;SDS011;14881;48.092;11.574;2023-08-07T09:13:09;5.03;;;1.88;;
27428;SDS011;14881;48.092;11.574;2023-08-07T09:15:40;2.63;;;1.83;;
27428;SDS011;14881;48.092;11.574;2023-08-07T09:18:13;2.80;;;2.00;;
27428;SDS011;14881;48.092;11.574;2023-08-07T09:20:40;2.75;;;2.10;;
27428;SDS011;14881;48.092;11.574;2023-08-07T09:23:07;4.43;;;1.83;;
27428;SDS011;14881;48.092;11.574;2023-08-07T09:25:34;2.50;;;1.90;;
27428;SDS011;14881;48.092;11.574;2023-08-07T09:28:02;3.70;;;2.15;;
27428;SDS011;14881;48.092;11.574;2023-08-07T09:30:29;2.20;;;2.00;;
27428;SDS011;14881;48.092;11.574;2023-08-07T09:32:56;4.43;;;2.05;;
27428;SDS011;14881;48.092;11.574;2023-08-07T09:35:23;2.45;;;1.85;;
27428;SDS011;14881;48.092;11.574;2023-08-07T09:37:50;4.78;;;2.58;;
27428;SDS011;14881;48.092;11.574;2023-08-07T09:40:17;4.13;;;2.10;;
27428;SDS011;14881;48.092;11.574;2023-08-07T09:42:45;4.30;;;2.17;;
27428;SDS011;14881;48.092;11.574;2023-08-07T09:45:21;2.47;;;2.22;;
27428;SDS011;14881;48.092;11.574;2023-08-07T09:47:58;4.68;;;1.92;;
27428;SDS011;14881;48.092;11.574;2023-08-07T09:50:25;6.70;;;2.05;;
27428;SDS011;14881;48.092;11.574;2023-08-07T09:52:53;3.72;;;1.58;;
27428;SDS011;14881;48.092;11.574;2023-08-07T09:55:19;3.60;;;2.25;;
27428;SDS011;14881;48.092;11.574;2023-08-07T09:57:46;2.10;;;1.90;;
27428;SDS011;14881;48.092;11.574;2023-08-07T10:00:14;3.17;;;1.73;;
27428;SDS011;14881;48.092;11.574;2023-08-07T10:02:41;3.55;;;1.90;;
27428;SDS011;14881;48.092;11.574;2023-08-07T10:05:09;3.10;;;2.30;;
27428;SDS011;14881;48.092;11.574;2023-08-07T10:07:36;5.53;;;1.98;;
27428;SDS011;14881;48.092;11.574;2023-08-07T10:10:03;2.50;;;2.10;;
27428;SDS011;14881;48.092;11.574;2023-08-07T10:12:30;2.65;;;1.90;;
27428;SDS011;14881;48.092;11.574;2023-08-07T10:14:57;2.58;;;1.77;;
27428;SDS011;14881;48.092;11.574;2023-08-07T10:17:25;3.25;;;1.95;;
27428;SDS011;14881;48.092;11.574;2023-08-07T10:19:53;3.08;;;2.28;;
27428;SDS011;14881;48.092;11.574;2023-08-07T10:22:20;4.22;;;1.95;;
27428;SDS011;14881;48.092;11.574;2023-08-07T10:24:49;4.78;;;1.85;;
27428;SDS011;14881;48.092;11.574;2023-08-07T10:27:17;3.15;;;1.95;;
27428;SDS011;14881;48.092;11.574;2023-08-07T10:29:46;2.35;;;1.77;;
27428;SDS011;14881;48.092;11.574;2023-08-07T10:32:14;2.67;;;1.85;;
27428;SDS011;14881;48.092;11.574;2023-08-07T10:34:46;3.70;;;1.65;;
27428;SDS011;14881;48.092;11.574;2023-08-07T10:37:22;2.38;;;1.52;;
27428;SDS011;14881;48.092;11.574;2023-08-07T10:40:01;4.00;;;1.65;;
27428;SDS011;14881;48.092;11.574;2023-08-07T10:42:32;2.15;;;1.60;;
27428;SDS011;14881;48.092;11.574;2023-08-07T10:47:42;3.78;;;1.90;;
27428;SDS011;14881;48.092;11.574;2023-08-07T10:50:09;3.53;;;1.90;;
27428;SDS011;14881;48.092;11.574;2023-08-07T10:52:38;2.00;;;1.80;;
27428;SDS011;14881;48.092;11.574;2023-08-07T10:55:12;4.63;;;1.90;;
27428;SDS011;14881;48.092;11.574;2023-08-07T10:57:39;2.65;;;1.77;;
27428;SDS011;14881;48.092;11.574;2023-08-07T11:00:09;2.92;;;1.77;;
27428;SDS011;14881;48.092;11.574;2023-08-07T11:02:41;2.10;;;1.80;;
27428;SDS011;14881;48.092;11.574;2023-08-07T11:05:09;2.78;;;1.90;;
27428;SDS011;14881;48.092;11.574;2023-08-07T11:07:36;2.75;;;1.85;;
27428;SDS011;14881;48.092;11.574;2023-08-07T11:10:07;1.77;;;1.50;;
27428;SDS011;14881;48.092;11.574;2023-08-07T11:12:34;2.85;;;1.90;;
27428;SDS011;14881;48.092;11.574;2023-08-07T11:15:02;3.25;;;1.70;;
27428;SDS011;14881;48.092;11.574;2023-08-07T11:17:28;3.30;;;1.95;;
27428;SDS011;14881;48.092;11.574;2023-08-07T11:19:55;3.85;;;1.88;;
27428;SDS011;14881;48.092;11.574;2023-08-07T11:22:22;2.63;;;2.03;;
27428;SDS011;14881;48.092;11.574;2023-08-07T11:24:50;3.75;;;1.73;;
27428;SDS011;14881;48.092;11.574;2023-08-07T11:27:17;3.20;;;1.60;;
27428;SDS011;14881;48.092;11.574;2023-08-07T11:29:45;2.00;;;1.42;;
27428;SDS011;14881;48.092;11.574;2023-08-07T11:32:13;3.08;;;1.50;;
27428;SDS011;14881;48.092;11.574;2023-08-07T11:34:40;3.15;;;1.80;;
27428;SDS011;14881;48.092;11.574;2023-08-07T11:37:07;2.75;;;1.70;;
27428;SDS011;14881;48.092;11.574;2023-08-07T11:39:41;2.33;;;1.60;;
27428;SDS011;14881;48.092;11.574;2023-08-07T11:42:08;2.47;;;1.60;;
27428;SDS011;14881;48.092;11.574;2023-08-07T11:44:35;2.05;;;1.48;;
27428;SDS011;14881;48.092;11.574;2023-08-07T11:47:02;1.55;;;1.45;;
27428;SDS011;14881;48.092;11.574;2023-08-07T11:49:28;2.38;;;1.48;;
27428;SDS011;14881;48.092;11.574;2023-08-07T11:51:54;3.50;;;1.67;;
27428;SDS011;14881;48.092;11.574;2023-08-07T11:54:21;4.53;;;2.10;;
27428;SDS011;14881;48.092;11.574;2023-08-07T11:56:51;2.67;;;1.42;;
27428;SDS011;14881;48.092;11.574;2023-08-07T11:59:18;2.75;;;1.30;;
27428;SDS011;14881;48.092;11.574;2023-08-07T12:01:45;1.90;;;1.60;;
27428;SDS011;14881;48.092;11.574;2023-08-07T12:04:11;2.72;;;1.70;;
27428;SDS011;14881;48.092;11.574;2023-08-07T12:06:41;1.83;;;1.60;;
27428;SDS011;14881;48.092;11.574;2023-08-07T12:09:18;1.63;;;1.42;;
27428;SDS011;14881;48.092;11.574;2023-08-07T12:11:48;2.45;;;1.85;;
27428;SDS011;14881;48.092;11.574;2023-08-07T12:14:21;2.33;;;2.10;;
27428;SDS011;14881;48.092;11.574;2023-08-07T12:16:48;4.25;;;1.90;;
27428;SDS011;14881;48.092;11.574;2023-08-07T12:19:15;2.53;;;1.60;;
27428;SDS011;14881;48.092;11.574;2023-08-07T12:21:42;1.75;;;1.60;;
27428;SDS011;14881;48.092;11.574;2023-08-07T12:24:09;3.03;;;2.08;;
27428;SDS011;14881;48.092;11.574;2023-08-07T12:26:35;3.10;;;2.13;;
27428;SDS011;14881;48.092;11.574;2023-08-07T12:29:01;3.25;;;1.65;;
27428;SDS011;14881;48.092;11.574;2023-08-07T12:31:28;2.45;;;1.90;;
27428;SDS011;14881;48.092;11.574;2023-08-07T12:33:55;2.17;;;1.70;;
27428;SDS011;14881;48.092;11.574;2023-08-07T12:36:41;6.55;;;1.75;;
27428;SDS011;14881;48.092;11.574;2023-08-07T12:39:08;3.35;;;1.50;;
27428;SDS011;14881;48.092;11.574;2023-08-07T12:41:35;2.60;;;1.73;;
27428;SDS011;14881;48.092;11.574;2023-08-07T12:44:04;2.45;;;1.80;;
27428;SDS011;14881;48.092;11.574;2023-08-07T12:46:31;2.92;;;1.73;;
27428;SDS011;14881;48.092;11.574;2023-08-07T12:48:59;3.67;;;1.60;;
27428;SDS011;14881;48.092;11.574;2023-08-07T12:51:26;5.15;;;1.45;;
27428;SDS011;14881;48.092;11.574;2023-08-07T12:53:52;2.00;;;1.60;;
27428;SDS011;14881;48.092;11.574;2023-08-07T12:56:18;4.13;;;1.83;;
27428;SDS011;14881;48.092;11.574;2023-08-07T12:58:45;2.65;;;1.52;;
27428;SDS011;14881;48.092;11.574;2023-08-07T13:01:12;1.77;;;1.67;;
27428;SDS011;14881;48.092;11.574;2023-08-07T13:03:39;1.60;;;1.45;;
27428;SDS011;14881;48.092;11.574;2023-08-07T13:06:05;2.05;;;1.48;;
27428;SDS011;14881;48.092;11.574;2023-08-07T13:08:34;2.45;;;1.90;;
27428;SDS011;14881;48.092;11.574;2023-08-07T13:11:00;3.65;;;1.63;;
27428;SDS011;14881;48.092;11.574;2023-08-07T13:13:27;2.65;;;1.42;;
27428;SDS011;14881;48.092;11.574;2023-08-07T13:15:53;2.97;;;1.50;;
27428;SDS011;14881;48.092;11.574;2023-08-07T13:18:21;3.25;;;1.25;;
27428;SDS011;14881;48.092;11.574;2023-08-07T13:20:48;3.00;;;1.70;;
27428;SDS011;14881;48.092;11.574;2023-08-07T13:23:14;2.78;;;1.52;;
27428;SDS011;14881;48.092;11.574;2023-08-07T13:25:41;1.63;;;1.25;;
27428;SDS011;14881;48.092;11.574;2023-08-07T13:28:07;3.65;;;1.70;;
27428;SDS011;14881;48.092;11.574;2023-08-07T13:30:33;5.30;;;1.80;;
27428;SDS011;14881;48.092;11.574;2023-08-07T13:33:03;2.78;;;1.67;;
27428;SDS011;14881;48.092;11.574;2023-08-07T13:35:29;4.85;;;1.85;;
27428;SDS011;14881;48.092;11.574;2023-08-07T13:37:57;2.80;;;1.70;;
27428;SDS011;14881;48.092;11.574;2023-08-07T13:40:23;2.13;;;1.83;;
27428;SDS011;14881;48.092;11.574;2023-08-07T13:42:50;5.97;;;2.03;;
27428;SDS011;14881;48.092;11.574;2023-08-07T13:45:16;2.53;;;1.60;;
27428;SDS011;14881;48.092;11.574;2023-08-07T13:47:42;4.22;;;1.60;;
27428;SDS011;14881;48.092;11.574;2023-08-07T13:50:09;2.03;;;1.60;;
27428;SDS011;14881;48.092;11.574;2023-08-07T13:52:38;2.17;;;1.50;;
27428;SDS011;14881;48.092;11.574;2023-08-07T13:55:06;2.95;;;1.80;;
27428;SDS011;14881;48.092;11.574;2023-08-07T13:57:34;3.22;;;1.75;;
27428;SDS011;14881;48.092;11.574;2023-08-07T14:00:00;3.38;;;1.67;;
27428;SDS011;14881;48.092;11.574;2023-08-07T14:02:27;2.15;;;1.80;;
27428;SDS011;14881;48.092;11.574;2023-08-07T14:04:54;3.58;;;1.80;;
27428;SDS011;14881;48.092;11.574;2023-08-07T14:07:22;2.65;;;1.65;;
27428;SDS011;14881;48.092;11.574;2023-08-07T14:09:49;2.20;;;2.00;;
27428;SDS011;14881;48.092;11.574;2023-08-07T14:12:16;1.92;;;1.65;;
27428;SDS011;14881;48.092;11.574;2023-08-07T14:14:42;3.25;;;1.80;;
27428;SDS011;14881;48.092;11.574;2023-08-07T14:17:08;5.80;;;1.80;;
27428;SDS011;14881;48.092;11.574;2023-08-07T14:19:35;1.92;;;1.63;;
27428;SDS011;14881;48.092;11.574;2023-08-07T14:22:01;3.55;;;1.70;;
27428;SDS011;14881;48.092;11.574;2023-08-07T14:24:28;3.67;;;1.75;;
27428;SDS011;14881;48.092;11.574;2023-08-07T14:26:54;1.90;;;1.50;;
27428;SDS011;14881;48.092;11.574;2023-08-07T14:29:21;1.83;;;1.40;;
27428;SDS011;14881;48.092;11.574;2023-08-07T14:31:48;3.83;;;1.77;;
27428;SDS011;14881;48.092;11.574;2023-08-07T14:34:14;2.38;;;1.50;;
27428;SDS011;14881;48.092;11.574;2023-08-07T14:36:40;2.95;;;1.63;;
27428;SDS011;14881;48.092;11.574;2023-08-07T14:39:07;2.55;;;1.50;;
27428;SDS011;14881;48.092;11.574;2023-08-07T14:41:33;2.90;;;1.80;;
27428;SDS011;14881;48.092;11.574;2023-08-07T14:44:00;3.40;;;1.75;;
27428;SDS011;14881;48.092;11.574;2023-08-07T14:46:27;3.22;;;1.77;;
27428;SDS011;14881;48.092;11.574;2023-08-07T14:48:53;2.90;;;1.80;;
27428;SDS011;14881;48.092;11.574;2023-08-07T14:51:20;2.28;;;2.08;;
27428;SDS011;14881;48.092;11.574;2023-08-07T14:53:46;3.25;;;1.70;;
27428;SDS011;14881;48.092;11.574;2023-08-07T14:56:13;5.35;;;2.10;;
27428;SDS011;14881;48.092;11.574;2023-08-07T14:58:39;3.70;;;1.85;;
27428;SDS011;14881;48.092;11.574;2023-08-07T15:01:05;5.55;;;2.33;;
27428;SDS011;14881;48.092;11.574;2023-08-07T15:03:35;4.13;;;1.92;;
27428;SDS011;14881;48.092;11.574;2023-08-07T15:06:02;2.10;;;1.70;;
27428;SDS011;14881;48.092;11.574;2023-08-07T15:08:30;3.15;;;1.77;;
27428;SDS011;14881;48.092;11.574;2023-08-07T15:10:56;3.22;;;1.70;;
27428;SDS011;14881;48.092;11.574;2023-08-07T15:13:23;2.78;;;1.60;;
27428;SDS011;14881;48.092;11.574;2023-08-07T15:15:50;5.45;;;1.70;;
27428;SDS011;14881;48.092;11.574;2023-08-07T15:18:16;2.60;;;1.83;;
27428;SDS011;14881;48.092;11.574;2023-08-07T15:20:43;1.88;;;1.50;;
27428;SDS011;14881;48.092;11.574;2023-08-07T15:23:12;2.75;;;2.05;;
27428;SDS011;14881;48.092;11.574;2023-08-07T15:25:38;3.42;;;1.70;;